createdAt,value
2023-05-18T00:02:26.644Z,12.49
2023-05-18T00:05:02.524Z,12.45
2023-05-18T00:07:37.989Z,12.42
2023-05-18T00:10:12.972Z,12.39
2023-05-18T00:12:46.009Z,12.38
2023-05-18T00:15:18.995Z,12.27
2023-05-18T00:17:53.539Z,12.32
2023-05-18T00:20:27.265Z,12.31
2023-05-18T00:23:00.794Z,12.23
2023-05-18T00:25:35.417Z,12.23
2023-05-18T00:28:07.975Z,12.26
2023-05-18T00:30:41.579Z,12.16
2023-05-18T00:33:14.224Z,12.19
2023-05-18T00:35:47.634Z,12.16
2023-05-18T00:38:20.239Z,12.14
2023-05-18T00:40:54.698Z,12.07
2023-05-18T00:43:28.198Z,12.03
2023-05-18T00:46:01.012Z,12.07
2023-05-18T00:48:34.161Z,12.04
2023-05-18T00:51:07.421Z,11.99
2023-05-18T00:53:43.426Z,11.94
2023-05-18T00:56:18.693Z,11.90
2023-05-18T00:58:55.802Z,11.90
2023-05-18T01:01:36.564Z,11.76
2023-05-18T01:04:10.380Z,11.82
2023-05-18T01:06:43.869Z,11.70
2023-05-18T01:09:18.405Z,11.76
2023-05-18T01:12:00.809Z,11.72
2023-05-18T01:14:37.821Z,11.72
2023-05-18T01:17:22.445Z,11.64
2023-05-18T01:20:15.765Z,11.73
2023-05-18T01:23:06.551Z,11.70
2023-05-18T01:25:48.775Z,11.64
2023-05-18T01:28:28.952Z,11.68
2023-05-18T01:31:03.387Z,11.60
2023-05-18T01:33:38.634Z,11.64
2023-05-18T01:36:11.703Z,11.60
2023-05-18T01:38:45.980Z,11.60
2023-05-18T01:41:23.595Z,11.58
2023-05-18T01:44:04.043Z,11.58
2023-05-18T01:46:46.565Z,11.58
2023-05-18T01:49:27.775Z,11.59
2023-05-18T01:52:07.009Z,11.58
2023-05-18T01:54:46.676Z,11.53
2023-05-18T01:57:24.055Z,11.50
2023-05-18T02:00:00.621Z,11.55
2023-05-18T02:02:33.612Z,11.55
2023-05-18T02:05:08.136Z,11.56
2023-05-18T02:07:44.181Z,11.51
2023-05-18T02:10:17.444Z,11.52
2023-05-18T02:12:52.998Z,11.55
2023-05-18T02:15:29.153Z,11.60
2023-05-18T02:18:03.366Z,11.65
2023-05-18T02:20:38.214Z,11.70
2023-05-18T02:23:11.253Z,11.71
2023-05-18T02:25:44.672Z,11.80
2023-05-18T02:28:19.521Z,11.86
2023-05-18T02:30:53.766Z,11.93
2023-05-18T02:33:26.913Z,11.99
2023-05-18T02:35:59.898Z,12.11
2023-05-18T02:38:32.929Z,12.20
2023-05-18T02:41:06.344Z,12.28
2023-05-18T02:43:39.489Z,12.35
2023-05-18T02:46:15.420Z,12.44
2023-05-18T02:48:48.645Z,12.55
2023-05-18T02:51:24.251Z,12.65
2023-05-18T02:53:57.763Z,12.75
2023-05-18T02:56:32.974Z,12.86
2023-05-18T02:59:16.400Z,12.96
2023-05-18T03:01:51.789Z,13.09
2023-05-18T03:04:26.199Z,13.22
2023-05-18T03:07:03.264Z,13.28
2023-05-18T03:09:36.198Z,13.47
2023-05-18T03:12:10.989Z,13.59
2023-05-18T03:14:43.778Z,13.73
2023-05-18T03:17:18.330Z,13.84
2023-05-18T03:19:51.534Z,13.98
2023-05-18T03:22:25.113Z,14.05
2023-05-18T03:24:57.546Z,14.12
2023-05-18T03:27:30.371Z,14.19
2023-05-18T03:30:04.336Z,14.25
2023-05-18T03:32:39.369Z,14.28
2023-05-18T03:35:11.993Z,14.28
2023-05-18T03:37:45.278Z,14.31
2023-05-18T03:40:19.066Z,14.29
2023-05-18T03:42:53.718Z,14.34
2023-05-18T03:45:26.277Z,14.35
2023-05-18T03:48:01.190Z,14.43
2023-05-18T03:50:35.131Z,14.50
2023-05-18T03:53:08.326Z,14.55
2023-05-18T03:55:42.064Z,14.63
2023-05-18T03:58:15.416Z,14.66
2023-05-18T04:00:49.724Z,14.77
2023-05-18T04:03:27.364Z,14.86
2023-05-18T04:06:00.073Z,14.93
2023-05-18T04:08:34.888Z,15.03
2023-05-18T04:11:07.617Z,15.14
2023-05-18T04:13:40.536Z,15.24
2023-05-18T04:16:14.061Z,15.35
2023-05-18T04:18:49.058Z,15.40
2023-05-18T04:21:23.208Z,15.44
2023-05-18T04:23:56.450Z,15.69
2023-05-18T04:26:29.929Z,15.77
2023-05-18T04:29:02.843Z,15.93
2023-05-18T04:31:36.514Z,16.08
2023-05-18T04:34:10.663Z,16.23
2023-05-18T04:36:44.488Z,16.39
2023-05-18T04:39:18.470Z,16.62
2023-05-18T04:41:58.182Z,17.02
2023-05-18T04:44:38.788Z,17.59
2023-05-18T04:47:11.632Z,18.23
2023-05-18T04:49:46.660Z,18.83
2023-05-18T04:52:22.516Z,19.41
2023-05-18T04:54:55.605Z,20.01
2023-05-18T04:57:28.540Z,20.53
2023-05-18T05:00:02.710Z,21.07
2023-05-18T05:02:37.274Z,21.54
2023-05-18T05:05:12.133Z,21.90
2023-05-18T05:07:45.303Z,22.29
2023-05-18T05:10:18.432Z,22.62
2023-05-18T05:12:52.854Z,22.85
2023-05-18T05:15:25.827Z,23.19
2023-05-18T05:17:59.943Z,23.38
2023-05-18T05:20:34.405Z,23.59
2023-05-18T05:23:07.358Z,23.76
2023-05-18T05:25:43.308Z,23.91
2023-05-18T05:28:16.536Z,24.06
2023-05-18T05:30:50.000Z,24.18
2023-05-18T05:33:22.478Z,24.27
2023-05-18T05:35:58.771Z,24.38
2023-05-18T05:38:31.892Z,24.43
2023-05-18T05:41:05.256Z,24.55
2023-05-18T05:43:38.674Z,24.65
2023-05-18T05:46:11.225Z,24.72
2023-05-18T05:48:43.981Z,24.81
2023-05-18T05:51:18.549Z,24.89
2023-05-18T05:53:51.792Z,25.01
2023-05-18T05:56:25.072Z,25.11
2023-05-18T05:58:58.181Z,25.20
2023-05-18T06:01:31.150Z,25.29
2023-05-18T06:04:06.625Z,25.38
2023-05-18T06:06:42.072Z,25.43
2023-05-18T06:09:14.987Z,25.21
2023-05-18T06:11:48.746Z,25.53
2023-05-18T06:14:21.993Z,25.60
2023-05-18T06:16:55.224Z,25.68
2023-05-18T06:19:28.736Z,25.69
2023-05-18T06:22:04.107Z,25.75
2023-05-18T06:24:44.160Z,25.75
2023-05-18T06:27:44.944Z,25.84
2023-05-18T06:30:42.482Z,25.87
2023-05-18T06:33:38.656Z,25.92
2023-05-18T06:36:11.880Z,25.96
2023-05-18T06:38:46.136Z,25.95
2023-05-18T06:41:26.014Z,25.94
2023-05-18T06:44:00.547Z,25.97
2023-05-18T06:46:41.782Z,25.96
2023-05-18T06:49:23.338Z,25.97
2023-05-18T06:51:57.113Z,25.99
2023-05-18T06:54:31.502Z,26.04
2023-05-18T06:57:06.639Z,26.10
2023-05-18T06:59:39.516Z,26.04
2023-05-18T07:02:13.425Z,26.14
2023-05-18T07:04:46.923Z,26.21
2023-05-18T07:07:20.743Z,26.25
2023-05-18T07:09:55.132Z,26.25
2023-05-18T07:12:29.060Z,26.23
2023-05-18T07:15:02.099Z,26.08
2023-05-18T07:17:36.795Z,26.17
2023-05-18T07:20:10.403Z,26.12
2023-05-18T07:22:45.972Z,26.05
2023-05-18T07:25:20.676Z,25.95
2023-05-18T07:27:54.802Z,25.82
2023-05-18T07:30:27.869Z,25.70
2023-05-18T07:33:00.892Z,25.57
2023-05-18T07:35:34.186Z,25.38
2023-05-18T07:38:06.789Z,25.20
2023-05-18T07:40:41.665Z,25.05
2023-05-18T07:43:14.181Z,24.91
2023-05-18T07:45:47.581Z,24.80
2023-05-18T07:48:20.573Z,24.69
2023-05-18T07:50:54.245Z,24.64
2023-05-18T07:53:27.179Z,24.54
2023-05-18T07:56:01.900Z,24.49
2023-05-18T07:58:35.019Z,24.44
2023-05-18T08:01:08.302Z,24.38
2023-05-18T08:03:41.450Z,24.37
2023-05-18T08:06:14.336Z,24.34
2023-05-18T08:08:47.122Z,24.32
2023-05-18T08:11:22.379Z,24.28
2023-05-18T08:13:55.068Z,24.29
2023-05-18T08:16:28.256Z,24.29
2023-05-18T08:19:00.985Z,24.28
2023-05-18T08:21:35.015Z,24.29
2023-05-18T08:24:08.395Z,24.30
2023-05-18T08:26:42.367Z,24.26
2023-05-18T08:29:15.269Z,24.22
2023-05-18T08:31:49.714Z,24.19
2023-05-18T08:34:22.854Z,24.13
2023-05-18T08:36:55.818Z,24.17
2023-05-18T08:39:31.922Z,24.18
2023-05-18T08:42:16.671Z,24.19
2023-05-18T08:44:53.359Z,24.08
2023-05-18T08:47:28.931Z,24.04
2023-05-18T08:50:02.924Z,24.10
2023-05-18T08:52:44.206Z,24.11
2023-05-18T08:55:18.280Z,24.05
2023-05-18T08:57:58.151Z,24.06
2023-05-18T09:00:33.184Z,24.06
2023-05-18T09:03:06.758Z,24.07
2023-05-18T09:05:41.406Z,24.05
2023-05-18T09:08:14.803Z,24.09
2023-05-18T09:10:49.627Z,24.09
2023-05-18T09:13:23.779Z,24.10
2023-05-18T09:15:57.005Z,24.12
2023-05-18T09:18:29.636Z,24.13
2023-05-18T09:21:03.069Z,24.13
2023-05-18T09:23:35.806Z,24.12
2023-05-18T09:26:10.369Z,24.11
2023-05-18T09:28:45.505Z,24.08
2023-05-18T09:31:19.404Z,24.06
2023-05-18T09:33:52.938Z,24.10
2023-05-18T09:36:26.973Z,24.10
2023-05-18T09:39:00.138Z,24.11
2023-05-18T09:41:32.671Z,24.13
2023-05-18T09:44:09.944Z,24.15
2023-05-18T09:46:42.859Z,24.17
2023-05-18T09:49:22.315Z,24.20
2023-05-18T09:51:54.873Z,24.19
2023-05-18T09:54:28.207Z,24.19
2023-05-18T09:57:10.223Z,24.17
2023-05-18T09:59:45.347Z,24.11
2023-05-18T10:02:19.908Z,24.03
2023-05-18T10:04:52.880Z,23.95
2023-05-18T10:07:25.677Z,23.91
2023-05-18T10:10:02.612Z,23.82
2023-05-18T10:12:40.561Z,23.96
2023-05-18T10:15:17.934Z,24.04
2023-05-18T10:17:55.409Z,24.03
2023-05-18T10:20:29.120Z,24.17
2023-05-18T10:23:06.267Z,24.25
2023-05-18T10:25:39.808Z,24.33
2023-05-18T10:28:14.455Z,24.42
2023-05-18T10:30:49.351Z,24.49
2023-05-18T10:33:29.122Z,24.55
2023-05-18T10:36:05.390Z,24.57
2023-05-18T10:38:43.720Z,24.57
2023-05-18T10:41:22.015Z,24.56
2023-05-18T10:43:55.370Z,24.49
2023-05-18T10:46:30.724Z,24.50
2023-05-18T10:49:05.890Z,24.49
2023-05-18T10:51:45.127Z,24.45
2023-05-18T10:54:18.507Z,24.42
2023-05-18T10:56:54.353Z,24.51
2023-05-18T10:59:28.002Z,24.57
2023-05-18T11:02:04.207Z,24.55
2023-05-18T11:04:39.656Z,24.61
2023-05-18T11:07:14.214Z,24.63
2023-05-18T11:09:49.194Z,24.65
2023-05-18T11:12:23.779Z,24.53
2023-05-18T11:14:58.162Z,24.60
2023-05-18T11:17:32.385Z,24.62
2023-05-18T11:20:16.624Z,24.62
2023-05-18T11:22:54.146Z,24.62
2023-05-18T11:25:45.877Z,24.64
2023-05-18T11:28:22.929Z,24.64
2023-05-18T11:30:56.780Z,24.61
2023-05-18T11:33:31.381Z,24.56
2023-05-18T11:36:09.119Z,24.47
2023-05-18T11:38:53.650Z,24.36
2023-05-18T11:41:39.466Z,24.40
2023-05-18T11:44:17.154Z,24.41
2023-05-18T11:46:54.725Z,24.38
2023-05-18T11:49:31.251Z,24.31
2023-05-18T11:52:09.247Z,24.23
2023-05-18T11:54:45.388Z,24.23
2023-05-18T11:57:18.907Z,24.09
2023-05-18T11:59:56.723Z,24.13
2023-05-18T12:02:33.035Z,24.09
2023-05-18T12:05:09.797Z,24.18
2023-05-18T12:07:42.974Z,24.20
2023-05-18T12:10:16.285Z,24.26
2023-05-18T12:12:52.132Z,24.30
2023-05-18T12:15:25.358Z,24.33
2023-05-18T12:17:59.651Z,24.37
2023-05-18T12:20:35.747Z,24.40
2023-05-18T12:23:08.592Z,24.31
2023-05-18T12:25:41.387Z,24.40
2023-05-18T12:28:14.843Z,24.42
2023-05-18T12:30:47.289Z,24.43
2023-05-18T12:33:21.931Z,24.34
2023-05-18T12:35:56.585Z,24.39
2023-05-18T12:38:29.788Z,24.27
2023-05-18T12:41:02.377Z,24.29
2023-05-18T12:43:35.531Z,24.25
2023-05-18T12:46:08.149Z,24.17
2023-05-18T12:48:49.702Z,24.13
2023-05-18T12:51:23.862Z,24.06
2023-05-18T12:53:56.965Z,24.02
2023-05-18T12:56:52.674Z,23.97
2023-05-18T12:59:26.485Z,23.97
2023-05-18T13:01:59.393Z,23.94
2023-05-18T13:04:35.883Z,23.94
2023-05-18T13:07:12.192Z,23.94
2023-05-18T13:09:46.423Z,23.96
2023-05-18T13:12:18.886Z,23.97
2023-05-18T13:14:54.162Z,23.98
2023-05-18T13:17:26.554Z,23.97
2023-05-18T13:19:59.931Z,23.97
2023-05-18T13:22:35.536Z,23.96
2023-05-18T13:25:09.008Z,23.94
2023-05-18T13:27:42.107Z,23.92
2023-05-18T13:30:17.733Z,23.83
2023-05-18T13:32:51.335Z,23.89
2023-05-18T13:35:25.024Z,23.88
2023-05-18T13:37:59.121Z,23.82
2023-05-18T13:40:32.092Z,23.87
2023-05-18T13:43:06.588Z,23.88
2023-05-18T13:45:39.966Z,23.89
2023-05-18T13:48:12.710Z,23.92
2023-05-18T13:50:45.764Z,23.96
2023-05-18T13:53:19.732Z,23.98
2023-05-18T13:55:52.649Z,23.92
2023-05-18T13:58:25.858Z,24.04
2023-05-18T14:00:59.204Z,24.08
2023-05-18T14:03:34.225Z,24.11
2023-05-18T14:06:07.505Z,24.17
2023-05-18T14:08:41.872Z,24.20
2023-05-18T14:11:14.831Z,24.20
2023-05-18T14:13:47.223Z,24.22
2023-05-18T14:16:20.589Z,24.23
2023-05-18T14:18:53.282Z,24.13
2023-05-18T14:21:26.182Z,24.12
2023-05-18T14:24:03.822Z,24.20
2023-05-18T14:26:42.906Z,24.19
2023-05-18T14:29:15.699Z,24.16
2023-05-18T14:31:48.501Z,24.03
2023-05-18T14:34:21.801Z,24.09
2023-05-18T14:36:56.587Z,24.05
2023-05-18T14:39:30.835Z,24.01
2023-05-18T14:42:03.747Z,23.96
2023-05-18T14:44:36.305Z,23.95
2023-05-18T14:47:10.559Z,23.92
2023-05-18T14:49:45.089Z,23.88
2023-05-18T14:52:17.793Z,23.86
2023-05-18T14:54:52.295Z,23.84
2023-05-18T14:57:26.659Z,23.81
2023-05-18T15:00:00.938Z,23.78
2023-05-18T15:02:33.560Z,23.63
2023-05-18T15:05:07.272Z,23.73
2023-05-18T15:07:39.746Z,23.70
2023-05-18T15:10:13.894Z,23.69
2023-05-18T15:12:46.269Z,23.65
2023-05-18T15:15:19.116Z,23.62
2023-05-18T15:17:51.999Z,23.48
2023-05-18T15:20:25.080Z,23.56
2023-05-18T15:22:57.468Z,23.54
2023-05-18T15:25:32.187Z,23.52
2023-05-18T15:28:04.900Z,23.49
2023-05-18T15:30:38.759Z,23.39
2023-05-18T15:33:11.195Z,23.45
2023-05-18T15:35:44.357Z,23.37
2023-05-18T15:38:19.322Z,23.34
2023-05-18T15:41:04.269Z,23.41
2023-05-18T15:44:13.454Z,23.40
2023-05-18T15:46:50.430Z,23.26
2023-05-18T15:49:25.529Z,23.21
2023-05-18T15:52:01.270Z,22.54
2023-05-18T15:54:33.765Z,23.11
2023-05-18T15:57:08.261Z,23.03
2023-05-18T15:59:41.017Z,22.91
2023-05-18T16:02:14.249Z,22.83
2023-05-18T16:04:47.751Z,22.81
2023-05-18T16:07:23.290Z,22.73
2023-05-18T16:09:56.142Z,22.59
2023-05-18T16:12:30.700Z,22.59
2023-05-18T16:15:06.599Z,22.51
2023-05-18T16:17:40.183Z,22.09
2023-05-18T16:20:13.744Z,22.35
2023-05-18T16:22:47.057Z,22.28
2023-05-18T16:25:19.919Z,22.20
2023-05-18T16:27:54.160Z,22.08
2023-05-18T16:30:26.711Z,22.06
2023-05-18T16:32:59.560Z,22.00
2023-05-18T16:35:32.461Z,21.94
2023-05-18T16:38:05.597Z,21.82
2023-05-18T16:40:38.147Z,21.78
2023-05-18T16:43:12.775Z,21.71
2023-05-18T16:45:46.001Z,21.49
2023-05-18T16:48:19.115Z,21.57
2023-05-18T16:50:51.822Z,21.49
2023-05-18T16:53:29.993Z,21.46
2023-05-18T16:56:04.213Z,21.41
2023-05-18T16:58:38.856Z,21.36
2023-05-18T17:01:19.718Z,21.31
2023-05-18T17:04:00.347Z,21.20
2023-05-18T17:06:33.028Z,21.13
2023-05-18T17:09:06.513Z,21.11
2023-05-18T17:11:39.520Z,20.95
2023-05-18T17:14:14.053Z,20.99
2023-05-18T17:16:48.449Z,20.94
2023-05-18T17:19:21.754Z,20.90
2023-05-18T17:21:54.958Z,20.84
2023-05-18T17:24:28.031Z,20.75
2023-05-18T17:27:00.859Z,20.67
2023-05-18T17:29:34.767Z,20.63
2023-05-18T17:32:08.066Z,20.54
2023-05-18T17:34:41.652Z,20.51
2023-05-18T17:37:14.220Z,20.40
2023-05-18T17:39:47.165Z,20.33
2023-05-18T17:42:20.359Z,20.18
2023-05-18T17:44:54.706Z,20.24
2023-05-18T17:47:28.096Z,20.22
2023-05-18T17:50:01.582Z,20.15
2023-05-18T17:52:34.336Z,20.09
2023-05-18T17:55:08.841Z,20.06
2023-05-18T17:57:45.395Z,20.03
2023-05-18T18:00:20.969Z,19.95
2023-05-18T18:02:54.279Z,19.93
2023-05-18T18:05:33.195Z,19.86
2023-05-18T18:08:07.369Z,19.84
2023-05-18T18:10:42.856Z,19.79
2023-05-18T18:13:20.173Z,19.76
2023-05-18T18:15:59.491Z,19.73
2023-05-18T18:18:32.865Z,19.67
2023-05-18T18:21:07.057Z,19.60
2023-05-18T18:23:40.388Z,19.56
2023-05-18T18:26:13.639Z,19.41
2023-05-18T18:28:46.433Z,19.51
2023-05-18T18:31:21.555Z,19.46
2023-05-18T18:33:57.897Z,19.43
2023-05-18T18:36:31.912Z,19.39
2023-05-18T18:39:06.761Z,19.36
2023-05-18T18:41:40.386Z,19.30
2023-05-18T18:44:13.216Z,19.24
2023-05-18T18:46:48.134Z,19.23
2023-05-18T18:49:21.161Z,19.18
2023-05-18T18:51:54.086Z,19.17
2023-05-18T18:54:27.562Z,19.14
2023-05-18T18:57:00.291Z,19.11
2023-05-18T18:59:35.140Z,19.07
2023-05-18T19:02:09.922Z,19.03
2023-05-18T19:04:45.230Z,18.98
2023-05-18T19:07:18.127Z,18.89
2023-05-18T19:09:51.245Z,18.87
2023-05-18T19:12:24.767Z,18.82
2023-05-18T19:14:57.638Z,18.78
2023-05-18T19:17:32.254Z,18.73
2023-05-18T19:20:07.891Z,18.66
2023-05-18T19:22:40.836Z,18.60
2023-05-18T19:25:13.725Z,18.61
2023-05-18T19:27:46.725Z,18.57
2023-05-18T19:30:21.992Z,18.47
2023-05-18T19:32:57.694Z,18.51
2023-05-18T19:35:32.855Z,18.46
2023-05-18T19:38:05.831Z,18.40
2023-05-18T19:40:38.590Z,18.39
2023-05-18T19:43:11.761Z,18.35
2023-05-18T19:45:44.909Z,18.37
2023-05-18T19:48:19.487Z,18.25
2023-05-18T19:50:52.614Z,18.25
2023-05-18T19:53:25.650Z,18.24
2023-05-18T19:55:59.693Z,18.19
2023-05-18T19:58:32.675Z,18.17
2023-05-18T20:01:05.552Z,18.16
2023-05-18T20:03:43.068Z,18.07
2023-05-18T20:06:16.962Z,18.12
2023-05-18T20:08:51.674Z,18.10
2023-05-18T20:11:24.250Z,17.91
2023-05-18T20:13:57.353Z,18.01
2023-05-18T20:16:33.928Z,17.97
2023-05-18T20:19:10.838Z,17.91
2023-05-18T20:21:44.123Z,17.92
2023-05-18T20:24:17.147Z,17.87
2023-05-18T20:26:50.741Z,17.88
2023-05-18T20:29:24.140Z,17.83
2023-05-18T20:31:57.249Z,17.78
2023-05-18T20:34:32.001Z,17.78
2023-05-18T20:37:05.835Z,17.76
2023-05-18T20:39:40.267Z,17.73
2023-05-18T20:42:15.005Z,17.71
2023-05-18T20:44:48.742Z,17.69
2023-05-18T20:47:21.361Z,17.68
2023-05-18T20:49:58.798Z,17.65
2023-05-18T20:52:31.567Z,17.61
2023-05-18T20:55:05.276Z,17.60
2023-05-18T20:57:40.530Z,17.58
2023-05-18T21:00:14.064Z,17.56
2023-05-18T21:02:48.492Z,17.50
2023-05-18T21:05:23.883Z,17.50
2023-05-18T21:07:56.447Z,17.48
2023-05-18T21:10:29.309Z,17.44
2023-05-18T21:13:02.206Z,17.41
2023-05-18T21:15:37.936Z,17.38
2023-05-18T21:18:10.664Z,17.36
2023-05-18T21:20:45.291Z,17.34
2023-05-18T21:23:17.980Z,17.25
2023-05-18T21:25:51.250Z,17.27
2023-05-18T21:28:27.205Z,17.26
2023-05-18T21:31:00.528Z,17.23
2023-05-18T21:33:33.237Z,17.20
2023-05-18T21:36:10.145Z,17.17
2023-05-18T21:38:42.968Z,17.08
2023-05-18T21:41:16.303Z,17.11
2023-05-18T21:43:48.939Z,17.05
2023-05-18T21:46:22.393Z,17.06
2023-05-18T21:48:55.282Z,17.08
2023-05-18T21:51:31.895Z,17.07
2023-05-18T21:54:04.636Z,17.06
2023-05-18T21:56:37.836Z,16.94
2023-05-18T21:59:11.149Z,16.98
2023-05-18T22:01:44.083Z,16.90
2023-05-18T22:04:17.641Z,16.86
2023-05-18T22:06:53.520Z,16.87
2023-05-18T22:09:26.977Z,16.79
2023-05-18T22:11:59.574Z,16.80
2023-05-18T22:14:32.490Z,16.75
2023-05-18T22:17:05.810Z,16.76
2023-05-18T22:19:38.666Z,16.73
2023-05-18T22:22:22.875Z,16.69
2023-05-18T22:25:01.784Z,16.69
2023-05-18T22:27:39.444Z,16.59
2023-05-18T22:30:13.833Z,16.64
2023-05-18T22:32:47.815Z,16.61
2023-05-18T22:35:20.799Z,16.56
2023-05-18T22:37:55.175Z,16.49
2023-05-18T22:40:28.125Z,16.45
2023-05-18T22:43:01.290Z,16.42
2023-05-18T22:45:34.279Z,16.38
2023-05-18T22:48:07.513Z,16.35
2023-05-18T22:50:40.124Z,16.30
2023-05-18T22:53:14.711Z,16.27
2023-05-18T22:55:47.818Z,16.25
2023-05-18T22:58:20.316Z,16.24
2023-05-18T23:00:53.556Z,16.21
2023-05-18T23:03:26.322Z,16.18
2023-05-18T23:06:03.395Z,16.18
2023-05-18T23:08:37.372Z,16.20
2023-05-18T23:11:10.919Z,16.18
2023-05-18T23:13:43.679Z,16.22
2023-05-18T23:16:17.267Z,16.24
2023-05-18T23:18:53.764Z,16.25
2023-05-18T23:21:26.679Z,16.27
2023-05-18T23:24:01.398Z,16.29
2023-05-18T23:26:34.822Z,16.34
2023-05-18T23:29:07.381Z,16.35
2023-05-18T23:31:40.548Z,16.38
2023-05-18T23:34:13.466Z,16.40
2023-05-18T23:36:48.513Z,16.44
2023-05-18T23:39:23.602Z,16.39
2023-05-18T23:41:59.381Z,16.49
2023-05-18T23:44:32.796Z,16.49
2023-05-18T23:47:06.421Z,16.48
2023-05-18T23:49:39.542Z,16.49
2023-05-18T23:52:14.068Z,16.38
2023-05-18T23:54:52.894Z,16.45
2023-05-18T23:57:26.555Z,16.39
